createdAt,value
2023-02-24T00:00:37.902Z,4.77
2023-02-24T00:03:11.191Z,4.80
2023-02-24T00:05:44.356Z,4.93
2023-02-24T00:08:12.733Z,4.33
2023-02-24T00:10:41.307Z,4.43
2023-02-24T00:13:12.008Z,15.50
2023-02-24T00:15:40.284Z,5.53
2023-02-24T00:18:09.233Z,4.60
2023-02-24T00:20:37.480Z,4.10
2023-02-24T00:23:09.790Z,4.23
2023-02-24T00:25:37.957Z,4.00
2023-02-24T00:28:06.392Z,4.60
2023-02-24T00:30:34.499Z,4.87
2023-02-24T00:33:03.960Z,4.97
2023-02-24T00:35:32.413Z,4.23
2023-02-24T00:38:00.935Z,4.17
2023-02-24T00:40:30.800Z,4.10
2023-02-24T00:42:59.227Z,4.17
2023-02-24T00:45:30.982Z,4.43
2023-02-24T00:47:59.428Z,3.90
2023-02-24T00:50:27.690Z,4.37
2023-02-24T00:52:55.877Z,4.23
2023-02-24T00:55:24.296Z,4.10
2023-02-24T00:57:53.966Z,4.50
2023-02-24T01:00:23.517Z,4.10
2023-02-24T01:02:52.317Z,4.10
2023-02-24T01:05:21.203Z,5.27
2023-02-24T01:07:49.412Z,4.40
2023-02-24T01:10:18.410Z,4.10
2023-02-24T01:12:53.876Z,3.73
2023-02-24T01:15:24.343Z,4.20
2023-02-24T01:17:52.553Z,4.17
2023-02-24T01:20:20.945Z,4.10
2023-02-24T01:22:53.312Z,4.60
2023-02-24T01:25:21.727Z,3.77
2023-02-24T01:27:50.688Z,3.87
2023-02-24T01:30:19.107Z,3.70
2023-02-24T01:32:49.103Z,3.00
2023-02-24T01:35:17.812Z,3.67
2023-02-24T01:37:46.361Z,3.10
2023-02-24T01:40:21.312Z,3.70
2023-02-24T01:42:50.588Z,3.50
2023-02-24T01:45:22.896Z,4.30
2023-02-24T01:47:54.097Z,3.07
2023-02-24T01:50:26.037Z,3.30
2023-02-24T01:52:59.094Z,3.57
2023-02-24T01:55:32.114Z,3.67
2023-02-24T01:58:02.978Z,3.50
2023-02-24T02:00:38.366Z,4.00
2023-02-24T02:03:20.407Z,3.30
2023-02-24T02:05:49.283Z,3.10
2023-02-24T02:08:19.828Z,3.67
2023-02-24T02:10:48.966Z,3.33
2023-02-24T02:13:21.521Z,3.10
2023-02-24T02:16:03.074Z,3.50
2023-02-24T02:18:43.446Z,3.77
2023-02-24T02:21:37.333Z,3.57
2023-02-24T02:24:32.514Z,3.23
2023-02-24T02:28:00.350Z,3.47
2023-02-24T02:31:07.620Z,3.30
2023-02-24T02:34:08.729Z,3.10
2023-02-24T02:36:44.377Z,3.27
2023-02-24T02:39:17.892Z,3.30
2023-02-24T02:41:53.729Z,3.50
2023-02-24T02:44:27.966Z,3.10
2023-02-24T02:47:02.748Z,3.17
2023-02-24T02:49:37.340Z,3.10
2023-02-24T02:52:13.763Z,3.20
2023-02-24T02:54:49.793Z,2.73
2023-02-24T02:57:22.480Z,3.10
2023-02-24T02:59:56.238Z,2.90
2023-02-24T03:02:29.603Z,3.63
2023-02-24T03:05:02.994Z,3.47
2023-02-24T03:07:40.465Z,3.00
2023-02-24T03:10:17.696Z,3.10
2023-02-24T03:12:50.765Z,8.73
2023-02-24T03:15:22.145Z,7.93
2023-02-24T03:17:57.347Z,8.57
2023-02-24T03:20:32.738Z,11.77
2023-02-24T03:23:04.314Z,7.20
2023-02-24T03:25:44.610Z,6.27
2023-02-24T03:28:17.724Z,4.70
2023-02-24T03:30:52.200Z,3.90
2023-02-24T03:33:29.684Z,3.77
2023-02-24T03:36:01.845Z,4.30
2023-02-24T03:38:33.550Z,3.80
2023-02-24T03:41:02.224Z,3.50
2023-02-24T03:43:33.813Z,3.80
2023-02-24T03:46:02.334Z,4.27
2023-02-24T03:48:30.838Z,3.70
2023-02-24T03:51:00.776Z,3.63
2023-02-24T03:53:37.907Z,3.87
2023-02-24T03:56:18.153Z,3.97
2023-02-24T03:58:59.643Z,4.37
2023-02-24T04:01:34.839Z,6.70
2023-02-24T04:04:08.521Z,5.30
2023-02-24T04:06:46.122Z,11.33
2023-02-24T04:09:20.211Z,7.27
2023-02-24T04:11:55.997Z,12.07
2023-02-24T04:14:29.244Z,6.53
2023-02-24T04:17:01.304Z,5.77
2023-02-24T04:19:33.525Z,5.40
2023-02-24T04:22:04.315Z,4.70
2023-02-24T04:24:35.074Z,5.37
2023-02-24T04:27:07.460Z,4.30
2023-02-24T04:29:47.003Z,6.27
2023-02-24T04:32:18.975Z,5.67
2023-02-24T04:34:47.454Z,6.60
2023-02-24T04:37:17.061Z,5.17
2023-02-24T04:39:46.179Z,4.63
2023-02-24T04:42:14.370Z,5.10
2023-02-24T04:44:42.965Z,3.90
2023-02-24T04:47:12.310Z,4.90
2023-02-24T04:49:41.155Z,4.73
2023-02-24T04:52:10.445Z,4.47
2023-02-24T04:54:40.151Z,7.50
2023-02-24T04:57:10.637Z,6.27
2023-02-24T04:59:38.970Z,5.03
2023-02-24T05:02:07.549Z,5.37
2023-02-24T05:04:38.956Z,5.93
2023-02-24T05:07:07.327Z,7.10
2023-02-24T05:09:35.474Z,6.13
2023-02-24T05:12:05.489Z,4.90
2023-02-24T05:14:33.689Z,4.33
2023-02-24T05:17:02.393Z,5.10
2023-02-24T05:19:47.920Z,4.47
2023-02-24T05:22:17.720Z,4.30
2023-02-24T05:24:48.118Z,4.80
2023-02-24T05:27:18.388Z,4.60
2023-02-24T05:29:46.802Z,5.80
2023-02-24T05:32:16.871Z,5.40
2023-02-24T05:34:45.127Z,5.07
2023-02-24T05:37:16.882Z,4.97
2023-02-24T05:39:45.097Z,4.90
2023-02-24T05:42:13.233Z,4.60
2023-02-24T05:44:42.830Z,5.33
2023-02-24T05:47:11.365Z,4.87
2023-02-24T05:49:39.803Z,4.43
2023-02-24T05:52:10.229Z,4.10
2023-02-24T05:54:41.679Z,4.00
2023-02-24T05:57:12.871Z,4.50
2023-02-24T05:59:43.482Z,4.90
2023-02-24T06:02:13.899Z,4.40
2023-02-24T06:04:51.317Z,3.40
2023-02-24T06:07:22.912Z,4.53
2023-02-24T06:09:53.840Z,3.33
2023-02-24T06:12:23.279Z,3.30
2023-02-24T06:14:53.166Z,4.73
2023-02-24T06:17:23.042Z,5.20
2023-02-24T06:19:52.875Z,4.03
2023-02-24T06:22:23.803Z,3.90
2023-02-24T06:24:54.107Z,5.07
2023-02-24T06:27:25.217Z,3.87
2023-02-24T06:29:56.874Z,4.33
2023-02-24T06:32:27.410Z,4.10
2023-02-24T06:34:57.582Z,4.13
2023-02-24T06:37:25.973Z,4.67
2023-02-24T06:39:54.192Z,4.40
2023-02-24T06:42:22.544Z,4.00
2023-02-24T06:44:51.239Z,4.20
2023-02-24T06:47:22.645Z,4.50
2023-02-24T06:49:51.603Z,5.70
2023-02-24T06:52:19.900Z,4.30
2023-02-24T06:54:49.730Z,4.60
2023-02-24T06:57:18.393Z,5.37
2023-02-24T06:59:48.803Z,5.13
2023-02-24T07:02:17.715Z,4.80
2023-02-24T07:04:47.740Z,5.37
2023-02-24T07:07:17.494Z,5.50
2023-02-24T07:09:45.890Z,4.80
2023-02-24T07:12:21.025Z,5.33
2023-02-24T07:14:50.465Z,5.77
2023-02-24T07:17:19.956Z,6.00
2023-02-24T07:19:49.689Z,6.93
2023-02-24T07:22:25.139Z,7.63
2023-02-24T07:25:00.529Z,7.87
2023-02-24T07:27:29.048Z,7.80
2023-02-24T07:29:57.280Z,7.77
2023-02-24T07:32:25.897Z,7.63
2023-02-24T07:34:55.625Z,7.83
2023-02-24T07:37:24.478Z,8.00
2023-02-24T07:39:53.029Z,7.43
2023-02-24T07:42:21.272Z,7.77
2023-02-24T07:44:49.681Z,6.70
2023-02-24T07:47:17.952Z,6.13
2023-02-24T07:49:46.345Z,4.97
2023-02-24T07:52:16.201Z,5.73
2023-02-24T07:54:44.445Z,5.83
2023-02-24T07:57:14.176Z,6.70
2023-02-24T07:59:47.039Z,6.10
2023-02-24T08:02:15.782Z,5.90
2023-02-24T08:04:50.602Z,5.03
2023-02-24T08:07:24.932Z,4.87
2023-02-24T08:10:14.523Z,5.30
2023-02-24T08:12:43.798Z,5.20
2023-02-24T08:15:22.083Z,4.93
2023-02-24T08:17:50.186Z,4.57
2023-02-24T08:20:29.814Z,4.40
2023-02-24T08:22:59.548Z,4.80
2023-02-24T08:25:35.951Z,5.27
2023-02-24T08:28:09.592Z,4.60
2023-02-24T08:30:40.319Z,4.87
2023-02-24T08:33:10.930Z,7.33
2023-02-24T08:35:44.799Z,7.00
2023-02-24T08:38:16.486Z,4.33
2023-02-24T08:40:54.815Z,21.20
2023-02-24T08:43:34.720Z,6.37
2023-02-24T08:46:13.403Z,5.57
2023-02-24T08:48:43.411Z,5.27
2023-02-24T08:51:15.181Z,5.87
2023-02-24T08:53:46.813Z,5.13
2023-02-24T08:56:24.393Z,5.20
2023-02-24T08:58:57.655Z,5.30
2023-02-24T09:01:34.625Z,4.77
2023-02-24T09:04:06.001Z,7.60
2023-02-24T09:06:41.118Z,5.80
2023-02-24T09:09:21.265Z,4.30
2023-02-24T09:11:56.183Z,3.70
2023-02-24T09:14:28.430Z,48.17
2023-02-24T09:17:05.523Z,21.53
2023-02-24T09:19:55.418Z,10.70
2023-02-24T09:22:41.126Z,6.70
2023-02-24T09:25:18.818Z,4.77
2023-02-24T09:27:52.302Z,4.77
2023-02-24T09:30:38.444Z,4.30
2023-02-24T09:33:08.723Z,4.47
2023-02-24T09:35:41.876Z,4.63
2023-02-24T09:38:10.185Z,5.03
2023-02-24T09:40:48.822Z,4.87
2023-02-24T09:43:24.506Z,4.70
2023-02-24T09:45:59.390Z,5.90
2023-02-24T09:48:43.873Z,21.50
2023-02-24T09:51:22.918Z,7.43
2023-02-24T09:53:54.502Z,8.00
2023-02-24T09:56:32.713Z,7.00
2023-02-24T09:59:12.685Z,8.30
2023-02-24T10:02:02.252Z,6.63
2023-02-24T10:04:49.429Z,21.90
2023-02-24T10:07:21.391Z,11.70
2023-02-24T10:09:54.045Z,7.57
2023-02-24T10:12:34.093Z,7.30
2023-02-24T10:15:19.762Z,6.33
2023-02-24T10:17:55.448Z,6.40
2023-02-24T10:20:39.368Z,6.07
2023-02-24T10:23:14.198Z,7.20
2023-02-24T10:25:54.149Z,6.33
2023-02-24T10:28:36.073Z,8.40
2023-02-24T10:31:25.383Z,7.90
2023-02-24T10:33:58.331Z,8.00
2023-02-24T10:36:35.347Z,8.17
2023-02-24T10:39:15.711Z,7.40
2023-02-24T10:41:46.966Z,8.40
2023-02-24T10:44:25.060Z,6.87
2023-02-24T10:47:11.682Z,27.67
2023-02-24T10:49:56.933Z,9.50
2023-02-24T10:52:50.791Z,7.73
2023-02-24T10:55:39.223Z,9.63
2023-02-24T10:58:15.934Z,9.03
2023-02-24T11:01:12.592Z,9.07
2023-02-24T11:03:48.002Z,9.97
2023-02-24T11:06:30.855Z,10.47
2023-02-24T11:09:19.229Z,11.90
2023-02-24T11:12:06.462Z,10.20
2023-02-24T11:15:06.053Z,9.93
2023-02-24T11:17:37.916Z,11.30
2023-02-24T11:20:17.565Z,10.17
2023-02-24T11:22:51.925Z,9.20
2023-02-24T11:25:24.310Z,9.80
2023-02-24T11:27:54.981Z,13.73
2023-02-24T11:30:30.955Z,13.33
2023-02-24T11:33:23.311Z,10.73
2023-02-24T11:36:05.281Z,12.57
2023-02-24T11:38:41.461Z,12.87
2023-02-24T11:41:20.668Z,15.27
2023-02-24T11:43:58.982Z,13.20
2023-02-24T11:46:37.176Z,12.23
2023-02-24T11:49:17.658Z,11.37
2023-02-24T11:51:46.666Z,12.60
2023-02-24T11:54:17.780Z,12.57
2023-02-24T11:56:50.019Z,11.20
2023-02-24T11:59:22.402Z,9.97
2023-02-24T12:01:59.325Z,10.17
2023-02-24T12:04:33.465Z,10.27
2023-02-24T12:07:06.878Z,10.73
2023-02-24T12:09:42.632Z,11.40
2023-02-24T12:12:14.952Z,11.33
2023-02-24T12:14:49.661Z,11.13
2023-02-24T12:17:25.335Z,12.70
2023-02-24T12:20:01.672Z,10.90
2023-02-24T12:22:40.028Z,11.27
2023-02-24T12:25:13.165Z,11.13
2023-02-24T12:27:49.527Z,10.23
2023-02-24T12:30:49.736Z,11.53
2023-02-24T12:33:53.334Z,9.67
2023-02-24T12:36:38.719Z,9.73
2023-02-24T12:39:16.259Z,8.73
2023-02-24T12:42:03.282Z,9.50
2023-02-24T12:44:44.152Z,9.00
2023-02-24T12:47:15.250Z,9.43
2023-02-24T12:50:09.241Z,10.63
2023-02-24T12:52:50.285Z,9.77
2023-02-24T12:55:24.491Z,9.30
2023-02-24T12:58:00.498Z,10.20
2023-02-24T13:00:37.646Z,9.60
2023-02-24T13:03:23.126Z,8.90
2023-02-24T13:05:57.242Z,9.93
2023-02-24T13:08:38.006Z,9.10
2023-02-24T13:11:13.440Z,9.40
2023-02-24T13:13:50.557Z,8.83
2023-02-24T13:16:30.631Z,9.20
2023-02-24T13:19:20.386Z,10.27
2023-02-24T13:22:02.400Z,9.53
2023-02-24T13:24:32.377Z,10.03
2023-02-24T13:27:18.545Z,14.70
2023-02-24T13:29:48.099Z,11.97
2023-02-24T13:32:29.579Z,11.60
2023-02-24T13:34:59.118Z,10.07
2023-02-24T13:37:32.508Z,9.80
2023-02-24T13:40:13.581Z,10.10
2023-02-24T13:42:42.169Z,9.10
2023-02-24T13:45:21.033Z,9.50
2023-02-24T13:48:20.684Z,9.60
2023-02-24T13:51:06.363Z,8.93
2023-02-24T13:53:48.531Z,8.90
2023-02-24T13:56:34.148Z,9.13
2023-02-24T13:59:37.235Z,10.10
2023-02-24T14:02:14.588Z,9.17
2023-02-24T14:04:49.418Z,10.50
2023-02-24T14:07:23.375Z,10.00
2023-02-24T14:09:55.699Z,10.10
2023-02-24T14:12:28.689Z,13.33
2023-02-24T14:14:58.440Z,18.30
2023-02-24T14:17:30.569Z,17.60
2023-02-24T14:20:11.144Z,16.30
2023-02-24T14:22:45.007Z,23.87
2023-02-24T14:25:15.827Z,26.97
2023-02-24T14:27:48.243Z,35.10
2023-02-24T14:30:26.764Z,29.23
2023-02-24T14:32:55.787Z,26.53
2023-02-24T14:35:32.323Z,29.63
2023-02-24T14:38:02.259Z,35.30
2023-02-24T14:40:30.997Z,38.23
2023-02-24T14:43:00.670Z,31.07
2023-02-24T14:45:30.897Z,30.77
2023-02-24T14:47:59.207Z,24.90
2023-02-24T14:50:31.295Z,26.40
2023-02-24T14:53:05.102Z,91.00
2023-02-24T14:55:37.209Z,31.90
2023-02-24T14:58:13.223Z,24.90
2023-02-24T15:00:46.943Z,25.93
2023-02-24T15:03:19.295Z,23.47
2023-02-24T15:05:51.615Z,25.17
2023-02-24T15:08:35.781Z,24.73
2023-02-24T15:11:11.453Z,26.10
2023-02-24T15:13:43.448Z,50.00
2023-02-24T15:16:19.088Z,28.87
2023-02-24T15:18:52.409Z,27.10
2023-02-24T15:21:23.689Z,26.63
2023-02-24T15:24:00.634Z,26.87
2023-02-24T15:26:31.180Z,26.00
2023-02-24T15:29:03.118Z,26.47
2023-02-24T15:31:31.633Z,25.67
2023-02-24T15:34:03.425Z,23.93
2023-02-24T15:36:34.812Z,23.63
2023-02-24T15:39:06.674Z,40.97
2023-02-24T15:41:42.096Z,31.90
2023-02-24T15:44:28.837Z,24.03
2023-02-24T15:46:57.668Z,24.57
2023-02-24T15:49:26.787Z,23.07
2023-02-24T15:51:59.607Z,23.93
2023-02-24T15:54:31.532Z,24.07
2023-02-24T15:57:01.621Z,24.33
2023-02-24T15:59:31.464Z,25.23
2023-02-24T16:01:59.668Z,22.67
2023-02-24T16:04:28.165Z,22.77
2023-02-24T16:06:58.581Z,22.77
2023-02-24T16:09:33.631Z,23.93
2023-02-24T16:12:03.091Z,23.33
2023-02-24T16:14:34.123Z,24.57
2023-02-24T16:17:04.435Z,27.73
2023-02-24T16:19:32.603Z,27.40
2023-02-24T16:22:00.892Z,40.53
2023-02-24T16:24:29.140Z,35.23
2023-02-24T16:26:57.482Z,29.73
2023-02-24T16:29:25.898Z,29.53
2023-02-24T16:31:55.668Z,26.47
2023-02-24T16:34:24.034Z,30.50
2023-02-24T16:36:52.316Z,29.70
2023-02-24T16:39:20.540Z,27.23
2023-02-24T16:41:49.019Z,26.43
2023-02-24T16:44:17.230Z,25.80
2023-02-24T16:46:46.297Z,23.60
2023-02-24T16:49:21.031Z,25.23
2023-02-24T16:51:49.151Z,27.27
2023-02-24T16:54:17.491Z,26.37
2023-02-24T16:56:46.747Z,27.00
2023-02-24T16:59:14.984Z,23.70
2023-02-24T17:01:44.182Z,25.90
2023-02-24T17:04:14.297Z,32.10
2023-02-24T17:06:44.390Z,28.40
2023-02-24T17:09:15.658Z,59.73
2023-02-24T17:11:44.926Z,29.07
2023-02-24T17:14:17.305Z,26.57
2023-02-24T17:16:45.624Z,28.50
2023-02-24T17:19:14.051Z,26.73
2023-02-24T17:21:45.661Z,30.03
2023-02-24T17:24:17.363Z,30.17
2023-02-24T17:26:45.705Z,26.50
2023-02-24T17:29:14.849Z,28.30
2023-02-24T17:31:43.548Z,26.73
2023-02-24T17:34:11.810Z,24.83
2023-02-24T17:36:40.009Z,24.87
2023-02-24T17:39:09.689Z,25.50
2023-02-24T17:41:37.839Z,24.03
2023-02-24T17:44:06.056Z,24.37
2023-02-24T17:46:34.268Z,75.47
2023-02-24T17:49:04.967Z,47.43
2023-02-24T17:51:33.573Z,25.83
2023-02-24T17:54:01.811Z,25.30
2023-02-24T17:56:31.501Z,24.27
2023-02-24T17:59:01.075Z,25.83
2023-02-24T18:01:29.755Z,26.37
2023-02-24T18:03:58.358Z,28.13
2023-02-24T18:06:26.876Z,26.20
2023-02-24T18:08:55.173Z,26.37
2023-02-24T18:11:23.333Z,27.53
2023-02-24T18:13:55.146Z,26.23
2023-02-24T18:16:23.672Z,27.43
2023-02-24T18:18:52.325Z,29.10
2023-02-24T18:21:20.888Z,29.90
2023-02-24T18:23:49.737Z,29.77
2023-02-24T18:26:18.403Z,29.50
2023-02-24T18:28:46.670Z,28.93
2023-02-24T18:31:18.799Z,31.03
2023-02-24T18:33:47.234Z,30.80
2023-02-24T18:36:16.145Z,31.93
2023-02-24T18:38:44.880Z,32.93
2023-02-24T18:41:15.615Z,33.27
2023-02-24T18:43:44.317Z,32.23
2023-02-24T18:46:16.338Z,31.77
2023-02-24T18:48:46.000Z,31.57
2023-02-24T18:51:14.942Z,33.43
2023-02-24T18:53:43.252Z,35.13
2023-02-24T18:56:13.841Z,123.33
2023-02-24T18:58:42.116Z,49.00
2023-02-24T19:01:14.118Z,39.23
2023-02-24T19:03:44.751Z,37.50
2023-02-24T19:06:14.901Z,36.43
2023-02-24T19:08:43.620Z,38.33
2023-02-24T19:11:13.656Z,37.20
2023-02-24T19:13:42.184Z,37.67
2023-02-24T19:16:10.436Z,34.83
2023-02-24T19:18:38.989Z,36.20
2023-02-24T19:21:10.066Z,34.37
2023-02-24T19:23:39.429Z,36.23
2023-02-24T19:26:15.655Z,35.50
2023-02-24T19:28:43.836Z,35.13
2023-02-24T19:31:14.647Z,35.87
2023-02-24T19:33:43.318Z,33.47
2023-02-24T19:36:13.277Z,33.30
2023-02-24T19:38:42.352Z,32.67
2023-02-24T19:41:10.505Z,36.37
2023-02-24T19:43:38.819Z,35.73
2023-02-24T19:46:08.282Z,36.17
2023-02-24T19:48:36.834Z,34.27
2023-02-24T19:51:09.815Z,34.20
2023-02-24T19:53:39.612Z,33.13
2023-02-24T19:56:08.347Z,32.20
2023-02-24T19:58:36.718Z,29.20
2023-02-24T20:01:10.363Z,27.33
2023-02-24T20:03:40.665Z,29.23
2023-02-24T20:06:17.041Z,33.90
2023-02-24T20:08:46.684Z,34.33
2023-02-24T20:11:15.702Z,33.10
2023-02-24T20:13:43.852Z,35.80
2023-02-24T20:16:13.784Z,36.00
2023-02-24T20:18:42.910Z,30.50
2023-02-24T20:21:11.988Z,25.17
2023-02-24T20:23:40.807Z,24.70
2023-02-24T20:26:13.984Z,24.07
2023-02-24T20:28:42.523Z,21.77
2023-02-24T20:31:13.144Z,20.97
2023-02-24T20:33:41.950Z,21.33
2023-02-24T20:36:11.642Z,19.13
2023-02-24T20:38:40.379Z,20.73
2023-02-24T20:41:09.988Z,23.33
2023-02-24T20:43:38.420Z,22.30
2023-02-24T20:46:14.209Z,24.50
2023-02-24T20:48:42.661Z,31.70
2023-02-24T20:51:12.356Z,26.07
2023-02-24T20:53:55.874Z,26.00
2023-02-24T20:56:27.737Z,24.53
2023-02-24T20:59:00.076Z,23.20
2023-02-24T21:01:28.947Z,21.73
2023-02-24T21:03:57.267Z,21.27
2023-02-24T21:06:26.034Z,21.03
2023-02-24T21:08:54.322Z,19.60
2023-02-24T21:11:23.264Z,20.47
2023-02-24T21:13:53.834Z,21.03
2023-02-24T21:16:23.348Z,20.83
2023-02-24T21:18:53.284Z,20.17
2023-02-24T21:21:22.015Z,19.80
2023-02-24T21:23:51.466Z,19.60
2023-02-24T21:26:20.913Z,18.87
2023-02-24T21:28:49.587Z,17.73
2023-02-24T21:31:21.708Z,18.30
2023-02-24T21:33:53.656Z,17.93
2023-02-24T21:36:25.785Z,18.00
2023-02-24T21:38:54.912Z,18.63
2023-02-24T21:41:23.801Z,17.03
2023-02-24T21:43:55.291Z,16.03
2023-02-24T21:46:28.351Z,17.83
2023-02-24T21:48:57.684Z,17.67
2023-02-24T21:51:26.899Z,17.27
2023-02-24T21:53:56.800Z,17.23
2023-02-24T21:56:27.063Z,17.97
2023-02-24T21:58:59.074Z,17.63
2023-02-24T22:01:32.327Z,19.67
2023-02-24T22:04:02.457Z,18.67
2023-02-24T22:06:33.278Z,17.70
2023-02-24T22:09:02.410Z,18.03
2023-02-24T22:11:32.737Z,18.13
2023-02-24T22:14:00.985Z,18.13
2023-02-24T22:16:30.997Z,16.53
2023-02-24T22:18:59.329Z,16.60
2023-02-24T22:21:29.714Z,18.43
2023-02-24T22:24:00.408Z,20.33
2023-02-24T22:26:30.256Z,21.00
2023-02-24T22:28:59.085Z,20.00
2023-02-24T22:31:29.287Z,17.40
2023-02-24T22:33:59.649Z,17.93
2023-02-24T22:36:29.667Z,15.67
2023-02-24T22:38:59.478Z,15.13
2023-02-24T22:41:31.073Z,13.83
2023-02-24T22:43:59.950Z,14.20
2023-02-24T22:46:29.955Z,14.57
2023-02-24T22:48:59.951Z,14.57
2023-02-24T22:51:28.435Z,14.67
2023-02-24T22:53:57.260Z,16.33
2023-02-24T22:56:27.763Z,14.83
2023-02-24T22:58:56.532Z,15.23
2023-02-24T23:01:27.086Z,16.17
2023-02-24T23:03:55.644Z,16.17
2023-02-24T23:06:26.771Z,15.60
2023-02-24T23:08:55.815Z,16.27
2023-02-24T23:11:27.768Z,16.60
2023-02-24T23:13:57.411Z,16.70
2023-02-24T23:16:29.673Z,17.70
2023-02-24T23:19:00.920Z,16.70
2023-02-24T23:21:35.797Z,16.27
2023-02-24T23:24:04.897Z,17.47
2023-02-24T23:26:34.604Z,16.30
2023-02-24T23:29:03.238Z,16.77
2023-02-24T23:31:31.935Z,16.60
2023-02-24T23:34:03.829Z,16.60
2023-02-24T23:36:33.774Z,15.77
2023-02-24T23:39:03.045Z,15.77
2023-02-24T23:41:31.228Z,17.47
2023-02-24T23:44:00.129Z,15.37
2023-02-24T23:46:28.844Z,15.00
2023-02-24T23:48:57.740Z,15.03
2023-02-24T23:51:27.994Z,13.57
2023-02-24T23:54:00.533Z,12.90
2023-02-24T23:56:30.082Z,14.57
2023-02-24T23:58:59.822Z,15.67
